Time;durP1;ratioP1;P1;durP2;ratioP2;P2;SDS_P1;SDS_P2;PMS_P1;PMS_P2;Temp;Humidity;BMP_temperature;BMP_pressure;BME280_temperature;BME280_humidity;BME280_pressure;Samples;Min_cycle;Max_cycle;Signal;HPM_P1;HPM_P2
2023/06/03 00:00:35;;;;;;;5.40;1.10;;;14.30;66.30;;;;;;5051244;28;20087;-68
2023/06/03 00:03:01;;;;;;;2.72;1.00;;;14.30;66.40;;;;;;5052578;28;20031;-68
2023/06/03 00:05:27;;;;;;;2.53;0.90;;;14.20;66.50;;;;;;5052370;28;20033;-70
2023/06/03 00:07:52;;;;;;;1.13;0.73;;;14.20;66.70;;;;;;5052173;28;20492;-69
2023/06/03 00:10:18;;;;;;;0.93;0.52;;;14.20;66.90;;;;;;5052203;28;20049;-68
2023/06/03 00:12:45;;;;;;;2.13;0.85;;;14.10;67.40;;;;;;5052043;28;20040;-68
2023/06/03 00:15:11;;;;;;;1.48;0.55;;;14.10;68.20;;;;;;5051369;28;20410;-69
2023/06/03 00:17:37;;;;;;;2.50;0.90;;;14.00;67.90;;;;;;5051896;28;20037;-68
2023/06/03 00:20:06;;;;;;;3.15;0.80;;;13.80;68.30;;;;;;5052318;28;20463;-69
2023/06/03 00:22:36;;;;;;;1.08;0.73;;;13.70;68.90;;;;;;5051788;28;20451;-69
2023/06/03 00:25:02;;;;;;;2.25;0.77;;;13.60;68.80;;;;;;5051584;28;20036;-70
2023/06/03 00:27:28;;;;;;;1.90;1.02;;;13.50;69.20;;;;;;5052106;28;20099;-69
2023/06/03 00:29:54;;;;;;;4.00;0.77;;;13.40;69.60;;;;;;5051499;28;20195;-69
2023/06/03 00:32:19;;;;;;;3.78;1.00;;;13.50;69.00;;;;;;5051649;28;20033;-70
2023/06/03 00:34:45;;;;;;;3.35;1.13;;;13.60;68.70;;;;;;5051656;28;20029;-68
2023/06/03 00:37:11;;;;;;;5.57;0.80;;;13.70;68.80;;;;;;5051701;28;20051;-69
2023/06/03 00:39:36;;;;;;;5.63;1.40;;;13.70;68.70;;;;;;5051330;28;20028;-69
2023/06/03 00:42:02;;;;;;;2.85;1.02;;;13.70;68.70;;;;;;5051933;28;20090;-71
2023/06/03 00:44:28;;;;;;;1.77;0.90;;;13.60;69.00;;;;;;5051027;28;20152;-69
2023/06/03 00:46:54;;;;;;;3.17;0.80;;;13.50;69.40;;;;;;5050191;28;20044;-69
2023/06/03 00:49:20;;;;;;;5.00;2.25;;;13.30;70.00;;;;;;5051292;28;20044;-69
2023/06/03 00:51:46;;;;;;;2.45;0.68;;;13.20;70.00;;;;;;5051224;28;20092;-68
2023/06/03 00:54:13;;;;;;;1.52;0.80;;;13.00;70.70;;;;;;5051648;28;20021;-70
2023/06/03 00:56:43;;;;;;;1.40;0.85;;;13.00;70.90;;;;;;5051151;28;20511;-69
2023/06/03 00:59:15;;;;;;;1.90;1.00;;;12.90;70.50;;;;;;5051174;28;20037;-69
2023/06/03 01:01:44;;;;;;;4.88;0.90;;;12.90;70.70;;;;;;5051085;28;20057;-69
2023/06/03 01:04:16;;;;;;;2.22;1.00;;;12.90;71.00;;;;;;5051114;28;20033;-71
2023/06/03 01:07:08;;;;;;;1.20;0.70;;;12.90;71.10;;;;;;5051313;28;20033;-70
2023/06/03 01:09:46;;;;;;;2.25;0.80;;;12.90;71.10;;;;;;5042437;28;20311;-68
2023/06/03 01:12:42;;;;;;;3.65;0.98;;;12.80;71.30;;;;;;5051306;28;20025;-68
2023/06/03 01:15:14;;;;;;;0.90;0.75;;;12.70;72.20;;;;;;5050767;28;20041;-69
2023/06/03 01:17:47;;;;;;;1.63;0.80;;;12.70;72.10;;;;;;5049513;28;20488;-69
2023/06/03 01:20:16;;;;;;;3.65;1.20;;;12.50;72.40;;;;;;5050791;28;20029;-69
2023/06/03 01:22:44;;;;;;;5.60;0.77;;;12.40;72.60;;;;;;5050422;28;20033;-70
2023/06/03 01:25:15;;;;;;;1.33;0.82;;;12.40;72.90;;;;;;5050509;28;20106;-68
2023/06/03 01:27:43;;;;;;;3.95;0.90;;;12.40;73.10;;;;;;5050529;28;20025;-69
2023/06/03 01:30:12;;;;;;;4.15;0.80;;;12.60;71.50;;;;;;5050778;28;20090;-70
2023/06/03 01:32:39;;;;;;;1.65;0.95;;;12.50;72.40;;;;;;5050325;28;20029;-68
2023/06/03 01:35:07;;;;;;;3.53;1.20;;;12.40;72.80;;;;;;5047909;28;20033;-68
2023/06/03 01:37:34;;;;;;;1.40;0.50;;;12.40;73.10;;;;;;5030394;28;20041;-68
2023/06/03 01:40:01;;;;;;;6.68;1.50;;;12.30;73.70;;;;;;5029373;28;20459;-69
2023/06/03 01:42:27;;;;;;;4.70;1.20;;;12.30;73.80;;;;;;5029859;28;20116;-68
2023/06/03 01:44:53;;;;;;;1.77;0.93;;;12.30;73.80;;;;;;5029375;28;20171;-69
2023/06/03 01:47:19;;;;;;;0.88;0.80;;;12.30;74.10;;;;;;5030254;28;20030;-69
2023/06/03 01:49:46;;;;;;;5.97;1.17;;;12.30;74.10;;;;;;5030543;28;20041;-69
2023/06/03 01:52:12;;;;;;;0.60;0.57;;;12.10;74.10;;;;;;5030284;28;20053;-68
2023/06/03 01:54:37;;;;;;;6.70;0.80;;;12.00;74.70;;;;;;5030521;28;20024;-68
2023/06/03 01:57:03;;;;;;;1.10;0.52;;;11.90;75.00;;;;;;5029832;28;20029;-68
2023/06/03 01:59:29;;;;;;;4.60;0.88;;;11.80;74.90;;;;;;5030423;28;20040;-68
2023/06/03 02:01:59;;;;;;;1.58;0.90;;;11.70;74.90;;;;;;5030598;28;20105;-68
2023/06/03 02:04:26;;;;;;;1.10;0.60;;;11.70;75.10;;;;;;5030365;28;20033;-69
2023/06/03 02:06:58;;;;;;;1.88;0.77;;;11.70;75.00;;;;;;5030258;28;20041;-69
2023/06/03 02:09:25;;;;;;;1.23;0.82;;;11.60;75.30;;;;;;5030682;28;20459;-69
2023/06/03 02:11:58;;;;;;;2.13;0.60;;;11.80;75.20;;;;;;5030119;28;20147;-69
2023/06/03 02:14:26;;;;;;;3.58;0.98;;;11.70;75.50;;;;;;5030200;28;20026;-68
2023/06/03 02:16:53;;;;;;;4.03;0.82;;;11.60;75.70;;;;;;5030166;28;20107;-69
2023/06/03 02:19:26;;;;;;;1.60;0.60;;;11.60;76.20;;;;;;5029050;28;20044;-69
2023/06/03 02:21:54;;;;;;;1.23;0.80;;;11.50;76.60;;;;;;5030047;28;20515;-68
2023/06/03 02:24:22;;;;;;;;;;;11.50;76.40;;;;;;5030809;28;20021;-68
2023/06/03 02:26:50;;;;;;;3.42;0.70;;;11.40;76.50;;;;;;5028970;28;20008;-68
2023/06/03 02:29:25;;;;;;;1.73;0.73;;;11.30;76.40;;;;;;5030117;28;20039;-68
2023/06/03 02:31:52;;;;;;;1.90;1.00;;;11.20;76.60;;;;;;5029205;28;20037;-69
2023/06/03 02:34:17;;;;;;;1.85;0.82;;;11.30;76.70;;;;;;5030115;28;20044;-68
2023/06/03 02:36:43;;;;;;;3.13;0.80;;;11.30;76.60;;;;;;5030063;28;20405;-66
2023/06/03 02:39:10;;;;;;;1.33;0.90;;;11.20;76.90;;;;;;5030388;28;20107;-68
2023/06/03 02:41:36;;;;;;;4.25;1.25;;;11.30;76.60;;;;;;5028944;28;20422;-67
2023/06/03 02:44:05;;;;;;;3.42;0.80;;;11.30;77.30;;;;;;5029804;28;20495;-68
2023/06/03 02:46:31;;;;;;;1.13;0.57;;;11.50;77.00;;;;;;5029856;28;20067;-68
2023/06/03 02:48:57;;;;;;;1.27;0.88;;;11.60;76.80;;;;;;5029924;28;20033;-67
2023/06/03 02:51:23;;;;;;;2.75;1.20;;;11.40;77.70;;;;;;5029328;28;20087;-67
2023/06/03 02:53:50;;;;;;;2.28;0.77;;;11.30;78.10;;;;;;5030051;28;20033;-67
2023/06/03 02:56:15;;;;;;;1.67;0.70;;;11.20;78.70;;;;;;5030527;28;20135;-69
2023/06/03 02:58:41;;;;;;;2.70;0.93;;;11.10;78.70;;;;;;5030593;28;20057;-68
2023/06/03 03:01:07;;;;;;;7.43;1.15;;;11.20;78.30;;;;;;5033386;28;20087;-68
2023/06/03 03:03:36;;;;;;;1.50;0.60;;;11.10;79.20;;;;;;5033786;28;20033;-69
2023/06/03 03:06:03;;;;;;;1.25;0.88;;;11.00;79.30;;;;;;5031031;28;20372;-69
2023/06/03 03:08:35;;;;;;;2.92;1.08;;;11.00;79.90;;;;;;5031918;28;20040;-68
2023/06/03 03:11:01;;;;;;;3.63;1.17;;;11.00;80.00;;;;;;5033727;28;20036;-71
2023/06/03 03:13:26;;;;;;;2.33;0.60;;;11.00;79.90;;;;;;5033520;28;20033;-69
2023/06/03 03:15:52;;;;;;;2.28;1.52;;;10.80;80.20;;;;;;5033249;28;20029;-69
2023/06/03 03:18:18;;;;;;;1.55;1.05;;;10.80;80.50;;;;;;5032977;28;20452;-68
2023/06/03 03:20:44;;;;;;;1.50;0.80;;;10.80;80.60;;;;;;5033607;28;20118;-69
2023/06/03 03:23:13;;;;;;;1.38;0.82;;;10.80;80.70;;;;;;5033349;28;20029;-68
2023/06/03 03:25:40;;;;;;;3.75;1.00;;;10.70;81.30;;;;;;5033218;28;20037;-68
2023/06/03 03:28:06;;;;;;;2.67;0.82;;;10.60;81.70;;;;;;5033240;28;20041;-69
2023/06/03 03:30:36;;;;;;;2.00;1.00;;;10.70;81.70;;;;;;5031561;28;20434;-67
2023/06/03 03:33:01;;;;;;;2.65;1.35;;;10.70;81.70;;;;;;5033529;28;20035;-70
2023/06/03 03:35:27;;;;;;;2.08;1.15;;;10.60;81.90;;;;;;5032838;28;20129;-68
2023/06/03 03:38:04;;;;;;;1.90;1.08;;;10.60;81.80;;;;;;5032717;28;20037;-68
2023/06/03 03:40:31;;;;;;;3.33;1.10;;;10.80;81.10;;;;;;5032610;28;20047;-69
2023/06/03 03:42:59;;;;;;;3.17;1.00;;;10.90;81.10;;;;;;5032557;28;20029;-68
2023/06/03 03:45:34;;;;;;;5.93;1.10;;;10.90;80.80;;;;;;5033415;28;20049;-68
2023/06/03 03:48:02;;;;;;;4.63;1.08;;;10.90;81.10;;;;;;5051471;28;20083;-68
2023/06/03 03:50:47;;;;;;;5.60;1.00;;;10.90;80.90;;;;;;5051282;28;20043;-68
2023/06/03 03:53:18;;;;;;;1.92;1.25;;;10.70;81.30;;;;;;5038323;28;20077;-68
2023/06/03 03:55:54;;;;;;;4.18;0.90;;;10.70;81.70;;;;;;5032399;28;20025;-68
2023/06/03 03:58:36;;;;;;;4.38;1.33;;;10.80;81.30;;;;;;5032360;28;20041;-68
2023/06/03 04:01:09;;;;;;;2.67;1.20;;;10.90;80.70;;;;;;5031146;28;20348;-69
2023/06/03 04:03:40;;;;;;;3.13;0.82;;;10.90;81.70;;;;;;5032161;28;20035;-69
2023/06/03 04:06:08;;;;;;;11.25;1.80;;;10.90;81.30;;;;;;5032567;28;20021;-69
2023/06/03 04:08:46;;;;;;;2.72;0.88;;;10.90;81.40;;;;;;5032046;28;20111;-69
2023/06/03 04:11:36;;;;;;;3.17;1.08;;;11.00;81.50;;;;;;5032058;28;20459;-68
2023/06/03 04:14:05;;;;;;;2.13;1.05;;;11.00;81.50;;;;;;5023225;28;20030;-69
2023/06/03 04:16:46;;;;;;;3.47;1.35;;;11.00;81.90;;;;;;5032178;28;20113;-68
2023/06/03 04:19:20;;;;;;;4.07;1.23;;;11.10;81.10;;;;;;5031811;28;20029;-68
2023/06/03 04:21:46;;;;;;;4.00;1.33;;;11.20;80.10;;;;;;5030409;28;20186;-69
2023/06/03 04:24:11;;;;;;;3.50;1.67;;;11.30;79.60;;;;;;5032167;28;20025;-69
2023/06/03 04:26:38;;;;;;;5.20;2.05;;;11.40;79.50;;;;;;5031786;28;20598;-69
2023/06/03 04:29:04;;;;;;;3.35;1.98;;;11.50;79.70;;;;;;5030525;28;20045;-69
2023/06/03 04:31:30;;;;;;;7.75;2.35;;;11.50;78.70;;;;;;5031908;28;20041;-68
2023/06/03 04:33:56;;;;;;;3.35;1.98;;;11.50;78.80;;;;;;5031712;28;20166;-68
2023/06/03 04:36:21;;;;;;;5.90;1.80;;;11.60;78.80;;;;;;5032143;28;20464;-69
2023/06/03 04:38:48;;;;;;;5.78;2.10;;;11.70;78.90;;;;;;5049178;28;20044;-69
2023/06/03 04:41:16;;;;;;;3.78;2.15;;;11.70;78.30;;;;;;5051658;28;20033;-69
2023/06/03 04:43:43;;;;;;;5.80;2.10;;;11.70;78.10;;;;;;5041722;28;20026;-68
2023/06/03 04:46:10;;;;;;;8.15;2.40;;;11.80;78.60;;;;;;5031789;28;20041;-69
2023/06/03 04:48:45;;;;;;;10.13;2.33;;;11.80;78.40;;;;;;5030544;28;20439;-70
2023/06/03 04:51:11;;;;;;;3.90;2.13;;;11.90;78.30;;;;;;5030825;28;20036;-70
2023/06/03 04:53:37;;;;;;;4.03;2.20;;;11.90;78.30;;;;;;5031466;28;20030;-69
2023/06/03 04:56:05;;;;;;;6.32;2.40;;;12.00;78.30;;;;;;5031529;28;20506;-71
2023/06/03 04:58:31;;;;;;;5.63;2.13;;;12.00;78.00;;;;;;5030321;28;20115;-70
2023/06/03 05:00:56;;;;;;;14.82;2.22;;;12.10;77.90;;;;;;5031337;28;20448;-69
2023/06/03 05:03:22;;;;;;;3.55;1.95;;;12.20;77.80;;;;;;5031804;28;20040;-69
2023/06/03 05:05:48;;;;;;;11.15;2.80;;;12.20;77.30;;;;;;5031450;28;20043;-69
2023/06/03 05:08:18;;;;;;;4.15;1.70;;;12.30;77.00;;;;;;5031245;28;20123;-70
2023/06/03 05:10:43;;;;;;;3.78;2.05;;;12.40;76.80;;;;;;5031174;28;20022;-70
2023/06/03 05:13:09;;;;;;;3.78;1.83;;;12.50;76.60;;;;;;5031356;28;20060;-70
2023/06/03 05:15:37;;;;;;;4.78;2.15;;;12.60;76.60;;;;;;5030893;28;20049;-70
2023/06/03 05:18:03;;;;;;;9.88;1.65;;;12.60;76.30;;;;;;5031444;28;20224;-70
2023/06/03 05:20:30;;;;;;;4.60;1.88;;;12.70;76.30;;;;;;5030482;28;20531;-70
2023/06/03 05:22:56;;;;;;;7.78;2.50;;;12.80;76.20;;;;;;5029344;28;20029;-71
2023/06/03 05:25:22;;;;;;;8.13;2.20;;;12.80;76.30;;;;;;5030981;28;20091;-69
2023/06/03 05:27:48;;;;;;;3.95;2.08;;;12.90;76.30;;;;;;5030616;28;20079;-70
2023/06/03 05:30:14;;;;;;;5.18;1.77;;;13.00;75.80;;;;;;5031053;28;20045;-69
2023/06/03 05:32:42;;;;;;;3.63;1.83;;;13.10;75.20;;;;;;5030490;28;20042;-69
2023/06/03 05:35:09;;;;;;;9.80;3.45;;;13.10;75.00;;;;;;5030234;28;20033;-69
2023/06/03 05:37:35;;;;;;;3.45;2.22;;;13.20;74.90;;;;;;5030880;28;20422;-69
2023/06/03 05:40:01;;;;;;;3.13;1.80;;;13.30;74.90;;;;;;5030973;28;20029;-70
2023/06/03 05:42:27;;;;;;;7.25;1.67;;;13.30;75.10;;;;;;5031195;28;20025;-69
2023/06/03 05:44:52;;;;;;;6.25;1.80;;;13.40;74.90;;;;;;5030753;28;20091;-69
2023/06/03 05:47:18;;;;;;;3.28;1.80;;;13.50;74.70;;;;;;5030311;28;20164;-68
2023/06/03 05:49:44;;;;;;;4.68;1.52;;;13.70;74.30;;;;;;5029462;28;20114;-68
2023/06/03 05:52:09;;;;;;;11.85;1.60;;;13.70;74.00;;;;;;5030426;28;20025;-67
2023/06/03 05:54:35;;;;;;;3.85;1.73;;;13.80;73.60;;;;;;5030269;28;20017;-68
2023/06/03 05:57:01;;;;;;;4.80;2.22;;;14.00;73.70;;;;;;5030862;28;20026;-67
2023/06/03 05:59:26;;;;;;;2.00;1.40;;;14.20;73.50;;;;;;5030357;28;20025;-67
2023/06/03 06:01:52;;;;;;;8.32;2.00;;;14.30;72.90;;;;;;5030293;28;20038;-67
2023/06/03 06:04:17;;;;;;;5.85;1.73;;;14.30;72.80;;;;;;5030355;28;20026;-68
2023/06/03 06:06:43;;;;;;;6.10;2.42;;;14.40;72.60;;;;;;5029747;28;20040;-67
2023/06/03 06:09:09;;;;;;;7.13;2.80;;;14.40;72.20;;;;;;5029420;28;20579;-67
2023/06/03 06:11:35;;;;;;;4.00;1.75;;;14.40;72.10;;;;;;5030184;28;20041;-68
2023/06/03 06:14:00;;;;;;;2.70;1.30;;;14.40;72.00;;;;;;5029010;28;20039;-67
2023/06/03 06:16:26;;;;;;;7.45;1.40;;;14.60;72.20;;;;;;5029819;28;20471;-68
2023/06/03 06:18:51;;;;;;;6.10;1.52;;;14.60;72.30;;;;;;5030191;28;20428;-68
2023/06/03 06:21:17;;;;;;;3.15;1.38;;;14.80;72.40;;;;;;5030759;28;20025;-67
2023/06/03 06:23:43;;;;;;;5.88;1.15;;;14.80;71.40;;;;;;5030033;28;20049;-68
2023/06/03 06:26:12;;;;;;;4.25;1.10;;;15.10;71.80;;;;;;5029899;28;20076;-67
2023/06/03 06:28:38;;;;;;;1.40;0.77;;;15.40;71.10;;;;;;5030099;28;20045;-67
2023/06/03 06:31:04;;;;;;;2.05;0.93;;;15.60;71.20;;;;;;5029787;28;20851;-71
2023/06/03 06:33:33;;;;;;;3.83;1.05;;;15.70;70.70;;;;;;5030009;28;20037;-69
2023/06/03 06:36:03;;;;;;;2.75;1.02;;;15.80;70.80;;;;;;5029905;28;20033;-69
2023/06/03 06:38:33;;;;;;;2.47;0.80;;;15.80;70.30;;;;;;5029701;28;20059;-70
2023/06/03 06:41:02;;;;;;;1.90;0.90;;;15.90;70.20;;;;;;5029837;28;20137;-69
2023/06/03 06:43:28;;;;;;;3.20;0.73;;;16.00;69.80;;;;;;5029843;28;20095;-68
2023/06/03 06:46:04;;;;;;;3.38;0.88;;;15.90;69.00;;;;;;5026506;28;20433;-68
2023/06/03 06:48:33;;;;;;;2.00;0.63;;;15.90;69.20;;;;;;5033085;28;20029;-68
2023/06/03 06:50:59;;;;;;;1.05;0.60;;;15.90;68.20;;;;;;5036806;28;20033;-68
2023/06/03 06:53:27;;;;;;;1.48;0.68;;;16.00;67.90;;;;;;5052140;28;20051;-69
2023/06/03 06:55:55;;;;;;;2.33;0.50;;;15.90;68.60;;;;;;5053432;28;20452;-69
2023/06/03 06:58:22;;;;;;;5.97;1.73;;;16.00;67.60;;;;;;5053547;28;20041;-68
2023/06/03 07:00:48;;;;;;;2.17;0.90;;;15.90;67.50;;;;;;5053406;28;20108;-69
2023/06/03 07:03:16;;;;;;;2.35;0.82;;;16.30;68.20;;;;;;5053795;28;20040;-69
2023/06/03 07:05:42;;;;;;;5.00;0.80;;;16.50;67.60;;;;;;5053131;28;20366;-69
2023/06/03 07:08:09;;;;;;;4.68;1.00;;;16.70;66.50;;;;;;5052280;28;20033;-70
2023/06/03 07:10:35;;;;;;;1.80;0.85;;;16.70;67.00;;;;;;5053216;28;20045;-70
2023/06/03 07:13:02;;;;;;;2.17;1.05;;;16.80;66.80;;;;;;5053230;28;20040;-70
2023/06/03 07:15:29;;;;;;;2.78;0.70;;;16.80;67.10;;;;;;5053970;28;20031;-70
2023/06/03 07:17:57;;;;;;;1.45;0.55;;;17.00;66.80;;;;;;5053311;28;20036;-71
2023/06/03 07:20:34;;;;;;;6.15;1.00;;;17.10;67.20;;;;;;5053010;28;20048;-69
2023/06/03 07:23:00;;;;;;;3.40;1.00;;;17.10;66.20;;;;;;5052967;28;20043;-68
2023/06/03 07:25:46;;;;;;;1.80;0.70;;;17.10;65.60;;;;;;5035718;28;20029;-69
2023/06/03 07:28:13;;;;;;;2.38;0.63;;;17.20;65.30;;;;;;5033152;28;20112;-70
2023/06/03 07:30:40;;;;;;;2.13;0.75;;;17.20;65.30;;;;;;5031682;28;20045;-70
2023/06/03 07:33:26;;;;;;;1.70;0.95;;;17.30;64.80;;;;;;5033285;28;20444;-70
2023/06/03 07:36:01;;;;;;;2.67;0.50;;;17.40;64.80;;;;;;5031688;28;20030;-69
2023/06/03 07:38:39;;;;;;;2.90;0.60;;;17.40;64.30;;;;;;5032723;28;20053;-69
2023/06/03 07:41:09;;;;;;;4.68;0.70;;;17.50;64.00;;;;;;5032565;28;20344;-71
2023/06/03 07:43:38;;;;;;;4.63;0.77;;;17.50;64.10;;;;;;5032490;28;20041;-71
2023/06/03 07:46:07;;;;;;;3.25;0.82;;;17.70;64.00;;;;;;5033032;28;20030;-71
2023/06/03 07:48:33;;;;;;;1.73;0.93;;;17.90;64.00;;;;;;5033112;28;20045;-72
2023/06/03 07:50:59;;;;;;;5.75;0.70;;;18.30;63.60;;;;;;5033012;28;20045;-73
2023/06/03 07:53:25;;;;;;;4.05;0.75;;;18.70;62.70;;;;;;5032553;28;20026;-73
2023/06/03 07:55:51;;;;;;;1.55;1.02;;;18.90;61.20;;;;;;5030026;28;20025;-71
2023/06/03 07:58:18;;;;;;;3.20;0.90;;;19.20;61.40;;;;;;5031234;28;20048;-72
2023/06/03 08:00:45;;;;;;;1.27;0.50;;;19.50;61.40;;;;;;5032669;28;20021;-71
2023/06/03 08:03:23;;;;;;;4.53;2.63;;;19.70;61.10;;;;;;5033184;28;20021;-69
2023/06/03 08:05:50;;;;;;;4.80;2.60;;;19.70;59.20;;;;;;5032621;28;20459;-72
2023/06/03 08:08:18;;;;;;;3.58;1.45;;;19.70;59.80;;;;;;5032338;28;20037;-71
2023/06/03 08:10:47;;;;;;;1.17;0.60;;;19.80;59.50;;;;;;5032184;28;20033;-70
2023/06/03 08:13:15;;;;;;;1.25;0.50;;;20.00;59.60;;;;;;5032258;28;20045;-71
2023/06/03 08:15:40;;;;;;;3.50;0.83;;;20.10;59.00;;;;;;5032173;28;20021;-71
2023/06/03 08:18:07;;;;;;;1.50;0.60;;;20.20;59.30;;;;;;5032517;28;20513;-71
2023/06/03 08:20:35;;;;;;;1.75;0.75;;;20.10;57.60;;;;;;5031224;28;20106;-69
2023/06/03 08:23:00;;;;;;;4.07;0.60;;;20.20;57.70;;;;;;5032067;28;20069;-71
2023/06/03 08:25:26;;;;;;;1.98;0.80;;;20.00;57.40;;;;;;5031881;28;20071;-71
2023/06/03 08:27:52;;;;;;;1.98;0.85;;;20.60;59.90;;;;;;5032188;28;20032;-71
2023/06/03 08:30:22;;;;;;;2.15;0.80;;;21.00;59.50;;;;;;5032101;28;20052;-71
2023/06/03 08:32:48;;;;;;;0.63;0.52;;;21.00;56.90;;;;;;5031727;28;20120;-72
2023/06/03 08:35:18;;;;;;;3.58;0.50;;;21.80;56.60;;;;;;5030514;28;20027;-71
2023/06/03 08:37:45;;;;;;;1.67;0.90;;;22.80;56.10;;;;;;5031407;28;20407;-72
2023/06/03 08:40:12;;;;;;;33.92;8.60;;;23.70;54.80;;;;;;5030352;28;20033;-71
2023/06/03 08:42:45;;;;;;;1.83;0.80;;;24.80;55.00;;;;;;5031595;28;20513;-71
2023/06/03 08:45:15;;;;;;;0.52;0.50;;;25.90;54.20;;;;;;5031932;28;20029;-71
2023/06/03 08:47:51;;;;;;;1.20;0.70;;;26.40;51.30;;;;;;5031695;28;20037;-72
2023/06/03 08:50:24;;;;;;;5.53;1.20;;;27.40;47.20;;;;;;5030544;28;20030;-72
2023/06/03 08:52:52;;;;;;;1.38;1.00;;;28.10;47.20;;;;;;5030432;28;20033;-72
2023/06/03 08:55:18;;;;;;;;;;;28.50;43.70;;;;;;5031989;28;20041;-72
2023/06/03 08:57:51;;;;;;;2.63;0.80;;;28.90;44.20;;;;;;5031355;28;19956;-73
2023/06/03 09:00:21;;;;;;;1.95;0.82;;;29.40;41.80;;;;;;5030775;28;20018;-73
2023/06/03 09:02:49;;;;;;;1.83;0.60;;;29.70;42.00;;;;;;5031360;28;20025;-72
2023/06/03 09:05:15;;;;;;;3.63;0.90;;;30.10;41.20;;;;;;5031240;28;20037;-73
2023/06/03 09:07:43;;;;;;;2.13;0.52;;;30.20;40.80;;;;;;5030884;28;20048;-72
2023/06/03 09:10:11;;;;;;;2.90;0.70;;;30.30;38.50;;;;;;5031181;28;20029;-71
2023/06/03 09:12:38;;;;;;;2.20;0.40;;;29.90;36.30;;;;;;5031105;28;20168;-72
2023/06/03 09:15:05;;;;;;;0.60;0.37;;;29.20;36.80;;;;;;5031623;28;20021;-71
2023/06/03 09:17:31;;;;;;;0.82;0.60;;;29.10;37.20;;;;;;5031347;28;20650;-72
2023/06/03 09:20:01;;;;;;;2.60;0.70;;;29.30;36.80;;;;;;5031095;28;20030;-71
2023/06/03 09:22:28;;;;;;;2.05;0.80;;;28.60;35.50;;;;;;5031039;28;20033;-73
2023/06/03 09:24:53;;;;;;;2.20;0.73;;;28.30;37.10;;;;;;5030954;28;20017;-72
2023/06/03 09:27:19;;;;;;;1.25;0.82;;;28.50;37.60;;;;;;5031461;28;20052;-73
2023/06/03 09:29:45;;;;;;;1.13;0.60;;;28.20;37.20;;;;;;5029883;28;20061;-72
2023/06/03 09:32:11;;;;;;;6.90;0.60;;;27.60;37.50;;;;;;5030878;28;20029;-72
2023/06/03 09:34:36;;;;;;;0.90;0.55;;;26.40;36.70;;;;;;5030772;28;20033;-71
2023/06/03 09:37:09;;;;;;;1.58;0.63;;;26.30;38.60;;;;;;5030777;28;20069;-72
2023/06/03 09:39:36;;;;;;;1.30;1.00;;;26.10;38.30;;;;;;5030728;28;20117;-71
2023/06/03 09:42:03;;;;;;;3.33;1.02;;;25.90;38.50;;;;;;5031369;28;20036;-72
2023/06/03 09:44:41;;;;;;;1.05;0.73;;;25.70;39.50;;;;;;5029454;28;20515;-71
2023/06/03 09:47:06;;;;;;;;;;;25.30;39.00;;;;;;5031473;28;20398;-73
2023/06/03 09:49:32;;;;;;;0.95;0.73;;;25.30;38.80;;;;;;5030615;28;20007;-72
2023/06/03 09:51:58;;;;;;;2.13;1.00;;;25.10;38.80;;;;;;5030595;28;20045;-73
2023/06/03 09:54:24;;;;;;;6.07;0.60;;;25.20;39.50;;;;;;5029944;28;20516;-72
2023/06/03 09:56:53;;;;;;;2.47;0.75;;;25.20;38.90;;;;;;5030373;28;20121;-71
2023/06/03 09:59:25;;;;;;;0.68;0.57;;;25.20;39.30;;;;;;5030567;28;20025;-72
2023/06/03 10:01:52;;;;;;;3.10;1.38;;;25.00;39.40;;;;;;5030494;28;20033;-71
2023/06/03 10:04:23;;;;;;;1.95;1.00;;;24.50;38.60;;;;;;5030676;28;20037;-72
2023/06/03 10:07:09;;;;;;;1.00;0.68;;;24.20;38.80;;;;;;5030733;28;20519;-72
2023/06/03 10:09:36;;;;;;;2.42;0.65;;;24.40;39.70;;;;;;5030354;28;20048;-70
2023/06/03 10:12:02;;;;;;;3.20;0.80;;;24.20;38.70;;;;;;5030943;28;20017;-72
2023/06/03 10:14:28;;;;;;;1.55;0.50;;;24.20;39.20;;;;;;5030248;28;20026;-72
2023/06/03 10:17:08;;;;;;;0.90;0.45;;;24.30;39.70;;;;;;5030319;28;20029;-72
2023/06/03 10:19:39;;;;;;;2.13;0.80;;;24.30;38.50;;;;;;5032796;28;20103;-73
2023/06/03 10:22:06;;;;;;;1.45;0.40;;;24.20;39.50;;;;;;5034450;28;20037;-72
2023/06/03 10:24:34;;;;;;;6.78;0.77;;;24.20;38.70;;;;;;5034761;28;20460;-73
2023/06/03 10:27:01;;;;;;;1.35;0.50;;;24.20;38.60;;;;;;5033375;28;20432;-72
2023/06/03 10:29:29;;;;;;;2.80;0.80;;;24.10;39.10;;;;;;5034067;28;20451;-72
2023/06/03 10:31:57;;;;;;;1.10;0.80;;;24.20;39.80;;;;;;5033922;28;20481;-72
2023/06/03 10:34:23;;;;;;;1.70;0.50;;;23.80;38.80;;;;;;5033078;28;20136;-72
2023/06/03 10:36:56;;;;;;;0.98;0.50;;;24.20;40.40;;;;;;5034260;28;20093;-70
2023/06/03 10:39:25;;;;;;;7.63;0.70;;;24.30;39.90;;;;;;5034800;28;20389;-72
2023/06/03 10:41:54;;;;;;;2.13;0.70;;;24.40;39.80;;;;;;5033955;28;20030;-72
2023/06/03 10:44:20;;;;;;;2.30;0.55;;;24.40;39.30;;;;;;5033248;28;20033;-71
2023/06/03 10:47:02;;;;;;;1.73;0.70;;;24.40;38.30;;;;;;5033843;28;20415;-70
2023/06/03 10:49:33;;;;;;;2.38;0.70;;;24.30;38.80;;;;;;5033966;28;20537;-72
2023/06/03 10:52:22;;;;;;;1.08;0.60;;;24.40;39.00;;;;;;5033860;28;20037;-71
2023/06/03 10:55:21;;;;;;;2.97;0.90;;;24.30;38.30;;;;;;5033837;28;20039;-72
2023/06/03 10:57:52;;;;;;;6.82;0.63;;;24.10;38.60;;;;;;5033667;28;20029;-72
2023/06/03 11:00:56;;;;;;;3.50;0.93;;;24.20;38.70;;;;;;5034646;28;20053;-72
2023/06/03 11:03:23;;;;;;;0.93;0.60;;;24.20;39.60;;;;;;5033947;28;20106;-72
2023/06/03 11:05:50;;;;;;;0.88;0.50;;;24.20;38.50;;;;;;5033633;28;20559;-71
2023/06/03 11:08:54;;;;;;;3.50;1.10;;;24.30;38.70;;;;;;5033293;28;20053;-71
2023/06/03 11:11:48;;;;;;;3.50;0.60;;;24.10;38.30;;;;;;5033464;28;20040;-71
2023/06/03 11:14:27;;;;;;;4.40;1.23;;;23.60;38.00;;;;;;5027350;28;20021;-72
2023/06/03 11:16:58;;;;;;;1.00;0.60;;;23.70;40.00;;;;;;5033005;28;20033;-72
2023/06/03 11:19:28;;;;;;;1.05;0.70;;;23.80;39.10;;;;;;5033036;28;20107;-71
2023/06/03 11:21:54;;;;;;;0.88;0.50;;;23.90;38.00;;;;;;5032853;28;20087;-71
2023/06/03 11:24:56;;;;;;;10.15;6.50;;;23.90;38.60;;;;;;5033355;28;20025;-72
2023/06/03 11:27:24;;;;;;;0.93;0.73;;;23.70;37.10;;;;;;4991849;28;20120;-72
2023/06/03 11:29:51;;;;;;;6.50;0.70;;;23.70;38.80;;;;;;5040980;28;20063;-71
2023/06/03 11:32:31;;;;;;;3.65;1.20;;;23.70;37.50;;;;;;5052900;28;20112;-71
2023/06/03 11:35:03;;;;;;;1.25;0.85;;;23.60;37.70;;;;;;5040214;28;20053;-72
2023/06/03 11:37:41;;;;;;;2.10;1.10;;;23.50;37.70;;;;;;5031452;28;20033;-71
2023/06/03 11:40:14;;;;;;;4.60;1.02;;;23.70;38.60;;;;;;5032634;28;20033;-71
2023/06/03 11:42:53;;;;;;;4.00;0.90;;;23.60;37.00;;;;;;5032574;28;20029;-70
2023/06/03 11:45:24;;;;;;;1.45;0.90;;;23.60;38.70;;;;;;5033176;28;20421;-72
2023/06/03 11:47:59;;;;;;;0.63;0.63;;;23.60;39.20;;;;;;5032540;28;20495;-72
2023/06/03 11:50:27;;;;;;;0.77;0.77;;;23.70;39.00;;;;;;5031418;28;20033;-72
2023/06/03 11:52:53;;;;;;;1.95;0.85;;;23.70;37.80;;;;;;5032502;28;20025;-72
2023/06/03 11:55:30;;;;;;;0.73;0.60;;;23.80;38.00;;;;;;5032345;28;20112;-71
2023/06/03 11:58:10;;;;;;;0.77;0.60;;;23.80;38.90;;;;;;5031173;28;20193;-71
2023/06/03 12:00:37;;;;;;;1.10;0.65;;;23.80;37.90;;;;;;5032581;28;20026;-71
2023/06/03 12:03:03;;;;;;;3.05;0.50;;;23.90;38.50;;;;;;5032793;28;20132;-71
2023/06/03 12:05:29;;;;;;;1.42;0.80;;;23.90;37.60;;;;;;5032191;28;20030;-71
2023/06/03 12:07:59;;;;;;;0.63;0.57;;;23.80;38.30;;;;;;5032172;28;20433;-72
2023/06/03 12:10:26;;;;;;;7.15;1.00;;;23.70;38.00;;;;;;5032203;28;20048;-71
2023/06/03 12:12:57;;;;;;;2.15;0.45;;;23.80;37.90;;;;;;5032139;28;20029;-72
2023/06/03 12:15:24;;;;;;;1.23;0.50;;;23.80;37.50;;;;;;5031544;28;20033;-73
2023/06/03 12:17:51;;;;;;;3.42;0.80;;;23.90;37.90;;;;;;5031985;28;20044;-71
2023/06/03 12:20:27;;;;;;;16.42;11.95;;;23.80;37.40;;;;;;5030933;28;20025;-72
2023/06/03 12:23:00;;;;;;;8.15;4.78;;;23.70;37.90;;;;;;5032169;28;20030;-72
2023/06/03 12:25:26;;;;;;;1.40;0.82;;;23.70;38.60;;;;;;5031960;28;20037;-71
2023/06/03 12:27:51;;;;;;;0.50;0.40;;;23.70;38.00;;;;;;5030759;28;20100;-72
2023/06/03 12:30:35;;;;;;;4.75;1.20;;;23.60;38.30;;;;;;5031969;28;20372;-71
2023/06/03 12:33:01;;;;;;;4.70;2.55;;;23.40;37.80;;;;;;5031808;28;20044;-72
2023/06/03 12:35:27;;;;;;;2.28;1.00;;;23.50;38.20;;;;;;5032030;28;20025;-72
2023/06/03 12:38:07;;;;;;;2.55;0.50;;;23.50;38.20;;;;;;5031492;28;20057;-72
2023/06/03 12:40:35;;;;;;;5.05;0.60;;;23.50;38.00;;;;;;5031025;28;20108;-71
2023/06/03 12:43:02;;;;;;;1.00;0.75;;;23.40;38.20;;;;;;5031554;28;20308;-71
2023/06/03 12:45:28;;;;;;;4.00;0.90;;;23.40;37.90;;;;;;5030780;28;20033;-72
2023/06/03 12:47:54;;;;;;;1.92;0.68;;;23.50;38.70;;;;;;5031617;28;20647;-71
2023/06/03 12:50:20;;;;;;;1.38;0.77;;;23.50;38.00;;;;;;5031480;28;20026;-71
2023/06/03 12:52:47;;;;;;;3.78;0.80;;;23.60;38.10;;;;;;5031372;28;20105;-72
2023/06/03 12:55:14;;;;;;;2.20;1.00;;;23.50;38.30;;;;;;5031365;28;20367;-72
2023/06/03 12:57:41;;;;;;;1.33;0.63;;;23.60;38.70;;;;;;5031397;28;20046;-71